createdAt,value
2019-03-24T00:00:33.476Z,92.33
2019-03-24T00:03:08.023Z,92.72
2019-03-24T00:05:43.894Z,93.32
2019-03-24T00:08:18.906Z,93.91
2019-03-24T00:10:56.552Z,93.93
2019-03-24T00:13:32.006Z,94.22
2019-03-24T00:16:08.573Z,94.61
2019-03-24T00:18:43.617Z,94.79
2019-03-24T00:21:19.059Z,95.00
2019-03-24T00:23:53.769Z,95.05
2019-03-24T00:26:28.853Z,95.12
2019-03-24T00:29:03.792Z,94.99
2019-03-24T00:31:38.904Z,94.14
2019-03-24T00:34:13.705Z,93.36
2019-03-24T00:36:48.740Z,93.36
2019-03-24T00:39:23.519Z,93.19
2019-03-24T00:41:58.147Z,93.39
2019-03-24T00:44:34.307Z,93.48
2019-03-24T00:47:08.859Z,93.34
2019-03-24T00:49:52.625Z,93.05
2019-03-24T00:52:27.595Z,92.84
2019-03-24T00:55:03.451Z,92.28
2019-03-24T00:57:38.462Z,91.36
2019-03-24T01:00:21.375Z,91.13
2019-03-24T01:02:57.501Z,91.25
2019-03-24T01:05:32.510Z,91.21
2019-03-24T01:08:07.691Z,91.07
2019-03-24T01:10:44.034Z,89.99
2019-03-24T01:13:19.122Z,89.81
2019-03-24T01:15:54.576Z,90.04
2019-03-24T01:18:29.555Z,90.30
2019-03-24T01:21:06.558Z,90.30
2019-03-24T01:23:42.051Z,90.09
2019-03-24T01:26:16.759Z,89.58
2019-03-24T01:28:51.296Z,89.49
2019-03-24T01:31:27.615Z,89.63
2019-03-24T01:34:02.735Z,89.22
2019-03-24T01:36:37.931Z,88.69
2019-03-24T01:39:13.891Z,88.59
2019-03-24T01:41:49.218Z,88.88
2019-03-24T01:44:25.520Z,89.08
2019-03-24T01:47:00.635Z,89.54
2019-03-24T01:49:35.517Z,89.35
2019-03-24T01:52:10.468Z,89.69
2019-03-24T01:54:44.882Z,90.09
2019-03-24T01:57:20.065Z,90.28
2019-03-24T01:59:54.984Z,89.99
2019-03-24T02:02:29.720Z,89.80
2019-03-24T02:05:04.678Z,90.03
2019-03-24T02:07:39.957Z,90.08
2019-03-24T02:10:15.103Z,90.04
2019-03-24T02:12:50.241Z,90.27
2019-03-24T02:15:25.230Z,90.53
2019-03-24T02:17:59.893Z,90.55
2019-03-24T02:20:34.747Z,90.73
2019-03-24T02:23:09.700Z,90.88
2019-03-24T02:25:44.361Z,90.73
2019-03-24T02:28:18.936Z,90.79
2019-03-24T02:30:53.837Z,91.17
2019-03-24T02:33:28.976Z,91.75
2019-03-24T02:36:05.472Z,91.38
2019-03-24T02:38:41.934Z,91.28
2019-03-24T02:41:17.592Z,91.74
2019-03-24T02:43:54.205Z,92.20
2019-03-24T02:46:29.141Z,92.67
2019-03-24T02:49:06.867Z,92.73
2019-03-24T02:51:42.914Z,92.93
2019-03-24T02:54:17.538Z,92.95
2019-03-24T02:56:54.824Z,92.58
2019-03-24T02:59:30.478Z,92.80
2019-03-24T03:02:05.685Z,92.86
2019-03-24T03:04:42.186Z,92.54
2019-03-24T03:07:17.514Z,92.75
2019-03-24T03:09:53.138Z,92.87
2019-03-24T03:12:31.344Z,92.95
2019-03-24T03:15:09.855Z,92.90
2019-03-24T03:17:49.389Z,92.60
2019-03-24T03:20:25.422Z,92.72
2019-03-24T03:23:01.104Z,93.07
2019-03-24T03:25:36.794Z,93.48
2019-03-24T03:28:11.866Z,93.49
2019-03-24T03:30:46.540Z,93.46
2019-03-24T03:33:21.612Z,93.64
2019-03-24T03:35:56.429Z,93.54
2019-03-24T03:38:31.186Z,93.62
2019-03-24T03:41:07.295Z,93.70
2019-03-24T03:43:41.933Z,93.71
2019-03-24T03:46:18.988Z,93.68
2019-03-24T03:48:54.975Z,93.83
2019-03-24T03:51:29.640Z,93.76
2019-03-24T03:54:14.103Z,93.76
2019-03-24T03:56:51.014Z,93.91
2019-03-24T03:59:26.045Z,94.26
2019-03-24T04:02:02.004Z,94.43
2019-03-24T04:04:38.370Z,94.57
2019-03-24T04:07:12.966Z,94.68
2019-03-24T04:09:47.752Z,94.60
2019-03-24T04:12:24.181Z,94.45
2019-03-24T04:14:58.613Z,94.50
2019-03-24T04:17:38.073Z,94.41
2019-03-24T04:20:13.141Z,94.51
2019-03-24T04:22:48.241Z,94.42
2019-03-24T04:25:25.415Z,94.53
2019-03-24T04:28:00.485Z,94.62
2019-03-24T04:30:36.523Z,94.36
2019-03-24T04:33:11.629Z,94.42
2019-03-24T04:35:47.917Z,94.67
2019-03-24T04:38:23.014Z,94.47
2019-03-24T04:40:57.815Z,94.49
2019-03-24T04:43:32.759Z,94.66
2019-03-24T04:46:07.360Z,94.68
2019-03-24T04:48:42.317Z,94.81
2019-03-24T04:51:17.724Z,94.71
2019-03-24T04:53:52.806Z,94.55
2019-03-24T04:56:27.934Z,94.56
2019-03-24T04:59:02.808Z,94.34
2019-03-24T05:01:37.850Z,94.06
2019-03-24T05:04:13.414Z,93.66
2019-03-24T05:06:49.220Z,93.36
2019-03-24T05:09:24.159Z,93.39
2019-03-24T05:11:59.225Z,93.56
2019-03-24T05:14:33.811Z,93.52
2019-03-24T05:17:09.267Z,93.60
2019-03-24T05:19:44.334Z,93.09
2019-03-24T05:22:19.564Z,92.98
2019-03-24T05:24:53.999Z,92.60
2019-03-24T05:27:29.015Z,91.74
2019-03-24T05:30:05.464Z,91.24
2019-03-24T05:32:40.294Z,91.14
2019-03-24T05:35:15.160Z,91.50
2019-03-24T05:37:49.743Z,91.64
2019-03-24T05:40:24.261Z,91.47
2019-03-24T05:42:59.111Z,91.53
2019-03-24T05:45:33.674Z,91.26
2019-03-24T05:48:09.014Z,90.79
2019-03-24T05:50:44.399Z,90.87
2019-03-24T05:53:19.204Z,90.79
2019-03-24T05:55:54.168Z,90.68
2019-03-24T05:58:28.755Z,90.70
2019-03-24T06:01:04.762Z,90.65
2019-03-24T06:03:39.699Z,90.63
2019-03-24T06:06:14.485Z,90.71
2019-03-24T06:08:50.949Z,90.58
2019-03-24T06:11:27.116Z,89.91
2019-03-24T06:14:01.595Z,89.17
2019-03-24T06:16:38.005Z,88.89
2019-03-24T06:19:12.650Z,88.63
2019-03-24T06:21:47.612Z,88.41
2019-03-24T06:24:23.391Z,87.69
2019-03-24T06:26:58.623Z,87.11
2019-03-24T06:29:36.646Z,86.45
2019-03-24T06:32:11.640Z,85.88
2019-03-24T06:34:46.467Z,85.57
2019-03-24T06:37:21.896Z,85.37
2019-03-24T06:39:57.177Z,85.29
2019-03-24T06:42:32.592Z,84.94
2019-03-24T06:45:09.901Z,84.92
2019-03-24T06:47:57.383Z,84.93
2019-03-24T06:50:32.857Z,84.56
2019-03-24T06:53:08.298Z,84.06
2019-03-24T06:55:43.251Z,83.95
2019-03-24T06:58:18.338Z,83.89
2019-03-24T07:00:53.964Z,84.11
2019-03-24T07:03:32.633Z,84.19
2019-03-24T07:06:10.778Z,83.86
2019-03-24T07:08:47.484Z,83.59
2019-03-24T07:11:23.491Z,83.21
2019-03-24T07:13:59.966Z,83.08
2019-03-24T07:16:34.521Z,82.54
2019-03-24T07:19:09.403Z,82.05
2019-03-24T07:21:45.768Z,81.98
2019-03-24T07:24:20.600Z,81.72
2019-03-24T07:26:55.678Z,80.99
2019-03-24T07:29:33.411Z,80.13
2019-03-24T07:32:08.695Z,79.53
2019-03-24T07:34:44.179Z,79.57
2019-03-24T07:37:19.302Z,80.09
2019-03-24T07:39:53.966Z,80.06
2019-03-24T07:42:33.348Z,79.18
2019-03-24T07:45:28.138Z,78.18
2019-03-24T07:48:06.078Z,78.01
2019-03-24T07:50:42.666Z,77.60
2019-03-24T07:53:19.165Z,78.20
2019-03-24T07:55:56.342Z,77.70
2019-03-24T07:58:31.371Z,77.67
2019-03-24T08:01:06.432Z,77.61
2019-03-24T08:03:42.354Z,77.17
2019-03-24T08:06:17.664Z,75.85
2019-03-24T08:08:53.307Z,75.04
2019-03-24T08:11:47.338Z,73.78
2019-03-24T08:14:29.200Z,73.59
2019-03-24T08:17:03.833Z,73.26
2019-03-24T08:19:39.660Z,73.12
2019-03-24T08:22:17.551Z,72.91
2019-03-24T08:24:52.151Z,72.79
2019-03-24T08:27:29.134Z,72.73
2019-03-24T08:30:09.329Z,71.98
2019-03-24T08:32:46.973Z,71.26
2019-03-24T08:35:25.980Z,71.52
2019-03-24T08:38:03.891Z,70.41
2019-03-24T08:40:40.260Z,69.27
2019-03-24T08:43:18.162Z,68.45
2019-03-24T08:45:52.834Z,67.05
2019-03-24T08:48:40.163Z,66.16
2019-03-24T08:51:17.669Z,65.29
2019-03-24T08:53:54.839Z,65.42
2019-03-24T08:56:33.461Z,65.71
2019-03-24T08:59:12.005Z,64.90
2019-03-24T09:01:48.333Z,65.21
2019-03-24T09:04:29.720Z,64.98
2019-03-24T09:07:05.326Z,65.11
2019-03-24T09:09:43.947Z,65.12
2019-03-24T09:12:24.883Z,65.38
2019-03-24T09:15:06.341Z,65.37
2019-03-24T09:17:46.828Z,65.49
2019-03-24T09:20:26.655Z,63.51
2019-03-24T09:23:04.891Z,62.55
2019-03-24T09:25:42.278Z,62.69
2019-03-24T09:28:21.796Z,62.98
2019-03-24T09:30:56.965Z,61.89
2019-03-24T09:33:34.616Z,62.43
2019-03-24T09:36:15.961Z,63.55
2019-03-24T09:38:54.873Z,63.75
2019-03-24T09:41:35.955Z,64.48
2019-03-24T09:44:26.349Z,64.11
2019-03-24T09:47:04.493Z,63.08
2019-03-24T09:49:43.501Z,62.41
2019-03-24T09:52:18.729Z,62.36
2019-03-24T09:54:56.644Z,62.17
2019-03-24T09:57:32.281Z,61.90
2019-03-24T10:00:13.487Z,61.65
2019-03-24T10:02:50.243Z,61.76
2019-03-24T10:05:28.526Z,61.64
2019-03-24T10:08:04.711Z,61.79
2019-03-24T10:10:41.094Z,61.66
2019-03-24T10:13:18.888Z,61.77
2019-03-24T10:16:06.461Z,62.12
2019-03-24T10:18:43.472Z,60.91
2019-03-24T10:21:19.157Z,60.14
2019-03-24T10:23:57.962Z,59.40
2019-03-24T10:26:34.383Z,58.87
2019-03-24T10:29:09.863Z,58.31
2019-03-24T10:31:44.557Z,58.65
2019-03-24T10:34:22.184Z,57.55
2019-03-24T10:36:59.301Z,57.81
2019-03-24T10:39:41.118Z,58.23
2019-03-24T10:42:17.441Z,56.47
2019-03-24T10:44:53.825Z,56.50
2019-03-24T10:47:30.504Z,56.62
2019-03-24T10:50:06.976Z,55.74
2019-03-24T10:52:43.510Z,54.95
2019-03-24T10:55:27.321Z,52.91
2019-03-24T10:58:07.111Z,52.42
2019-03-24T11:00:45.776Z,53.04
2019-03-24T11:03:21.924Z,52.41
2019-03-24T11:06:02.723Z,50.22
2019-03-24T11:08:39.780Z,49.98
2019-03-24T11:11:19.139Z,48.34
2019-03-24T11:14:05.387Z,48.24
2019-03-24T11:16:43.328Z,47.99
2019-03-24T11:19:19.035Z,45.35
2019-03-24T11:21:57.344Z,45.02
2019-03-24T11:24:31.921Z,47.39
2019-03-24T11:27:10.689Z,46.43
2019-03-24T11:29:51.851Z,48.06
2019-03-24T11:32:40.636Z,49.14
2019-03-24T11:35:20.563Z,49.40
2019-03-24T11:37:59.649Z,48.32
2019-03-24T11:40:34.738Z,47.98
2019-03-24T11:43:10.222Z,47.44
2019-03-24T11:45:55.110Z,47.08
2019-03-24T11:48:35.787Z,47.22
2019-03-24T11:51:17.318Z,47.13
2019-03-24T11:53:55.590Z,47.64
2019-03-24T11:56:31.762Z,47.92
2019-03-24T11:59:10.833Z,48.60
2019-03-24T12:01:50.825Z,48.63
2019-03-24T12:04:31.649Z,47.93
2019-03-24T12:07:07.982Z,46.57
2019-03-24T12:09:51.684Z,46.62
2019-03-24T12:12:27.835Z,46.18
2019-03-24T12:15:05.391Z,46.00
2019-03-24T12:17:43.806Z,46.52
2019-03-24T12:20:21.125Z,46.11
2019-03-24T12:22:58.029Z,46.60
2019-03-24T12:25:37.022Z,47.62
2019-03-24T12:28:13.521Z,47.60
2019-03-24T12:30:53.137Z,48.49
2019-03-24T12:33:27.827Z,48.92
2019-03-24T12:36:02.624Z,48.79
2019-03-24T12:38:38.801Z,48.14
2019-03-24T12:41:16.769Z,47.51
2019-03-24T12:43:56.070Z,47.34
2019-03-24T12:46:31.439Z,46.50
2019-03-24T12:49:10.262Z,46.33
2019-03-24T12:51:49.136Z,45.45
2019-03-24T12:54:28.061Z,45.11
2019-03-24T12:57:21.031Z,45.03
2019-03-24T13:00:06.531Z,44.56
2019-03-24T13:03:21.496Z,43.75
2019-03-24T13:06:10.570Z,44.42
2019-03-24T13:09:00.717Z,44.86
2019-03-24T13:11:42.462Z,43.77
2019-03-24T13:14:23.115Z,43.62
2019-03-24T13:17:10.316Z,42.50
2019-03-24T13:19:48.814Z,41.04
2019-03-24T13:22:34.231Z,40.22
2019-03-24T13:25:17.573Z,39.93
2019-03-24T13:28:00.438Z,39.51
2019-03-24T13:30:41.359Z,39.63
2019-03-24T13:33:31.379Z,39.65
2019-03-24T13:36:13.254Z,39.83
2019-03-24T13:38:55.409Z,40.07
2019-03-24T13:41:38.699Z,39.58
2019-03-24T13:44:28.705Z,39.63
2019-03-24T13:47:06.724Z,38.91
2019-03-24T13:49:53.649Z,39.33
2019-03-24T13:52:39.384Z,39.84
2019-03-24T13:55:28.731Z,39.92
2019-03-24T13:58:30.568Z,39.08
2019-03-24T14:01:15.187Z,38.03
2019-03-24T14:04:05.340Z,37.59
2019-03-24T14:06:54.218Z,37.70
2019-03-24T14:09:38.493Z,38.15
2019-03-24T14:12:16.376Z,38.45
2019-03-24T14:15:10.816Z,38.32
2019-03-24T14:17:51.767Z,38.25
2019-03-24T14:20:30.401Z,38.00
2019-03-24T14:23:05.253Z,37.57
2019-03-24T14:25:41.763Z,36.57
2019-03-24T14:28:18.511Z,37.44
2019-03-24T14:30:55.115Z,36.47
2019-03-24T14:33:31.158Z,36.00
2019-03-24T14:36:17.896Z,35.26
2019-03-24T14:38:55.262Z,35.69
2019-03-24T14:41:31.897Z,35.67
2019-03-24T14:44:12.189Z,34.01
2019-03-24T14:46:46.863Z,34.92
2019-03-24T14:49:25.100Z,35.30
2019-03-24T14:52:01.929Z,35.85
2019-03-24T14:54:47.697Z,34.73
2019-03-24T14:57:23.962Z,33.84
2019-03-24T14:59:59.067Z,33.33
2019-03-24T15:02:34.198Z,34.40
2019-03-24T15:05:10.001Z,34.63
2019-03-24T15:07:44.865Z,35.26
2019-03-24T15:10:25.432Z,33.33
2019-03-24T15:13:00.347Z,33.53
2019-03-24T15:15:36.130Z,31.46
2019-03-24T15:18:14.883Z,31.23
2019-03-24T15:20:52.184Z,28.08
2019-03-24T15:23:28.593Z,27.78
2019-03-24T15:26:08.262Z,28.96
2019-03-24T15:28:43.602Z,30.13
2019-03-24T15:31:18.812Z,31.43
2019-03-24T15:33:55.780Z,31.73
2019-03-24T15:36:31.129Z,31.05
2019-03-24T15:39:10.566Z,30.33
2019-03-24T15:41:51.682Z,31.42
2019-03-24T15:44:27.643Z,31.18
2019-03-24T15:47:03.137Z,30.80
2019-03-24T15:49:46.868Z,30.66
2019-03-24T15:52:33.928Z,29.44
2019-03-24T15:55:11.026Z,29.13
2019-03-24T15:57:48.847Z,26.05
2019-03-24T16:00:47.030Z,24.10
2019-03-24T16:03:24.106Z,24.95
2019-03-24T16:06:11.469Z,25.46
2019-03-24T16:08:49.632Z,26.31
2019-03-24T16:11:30.167Z,27.55
2019-03-24T16:14:04.954Z,27.99
2019-03-24T16:16:43.809Z,28.93
2019-03-24T16:19:19.446Z,29.57
2019-03-24T16:22:14.596Z,30.66
2019-03-24T16:24:50.791Z,30.43
2019-03-24T16:27:28.819Z,30.51
2019-03-24T16:30:07.225Z,31.18
2019-03-24T16:32:48.624Z,31.10
2019-03-24T16:35:27.834Z,31.35
2019-03-24T16:38:09.804Z,30.14
2019-03-24T16:40:47.819Z,29.99
2019-03-24T16:43:26.321Z,30.13
2019-03-24T16:46:03.030Z,30.56
2019-03-24T16:48:40.865Z,31.07
2019-03-24T16:51:17.819Z,31.81
2019-03-24T16:53:53.277Z,32.84
2019-03-24T16:56:37.328Z,32.24
2019-03-24T16:59:12.704Z,32.78
2019-03-24T17:01:49.997Z,33.40
2019-03-24T17:04:39.791Z,33.97
2019-03-24T17:07:15.563Z,34.80
2019-03-24T17:09:52.495Z,35.31
2019-03-24T17:12:27.601Z,35.97
2019-03-24T17:15:06.779Z,36.86
2019-03-24T17:17:43.182Z,37.32
2019-03-24T17:20:20.013Z,37.59
2019-03-24T17:23:00.052Z,38.35
2019-03-24T17:25:37.914Z,38.99
2019-03-24T17:28:15.851Z,39.60
2019-03-24T17:30:54.113Z,40.12
2019-03-24T17:33:34.886Z,40.73
2019-03-24T17:36:12.197Z,41.43
2019-03-24T17:38:57.055Z,42.38
2019-03-24T17:41:37.102Z,43.01
2019-03-24T17:44:22.814Z,43.73
2019-03-24T17:47:01.287Z,44.70
2019-03-24T17:49:41.437Z,45.64
2019-03-24T17:52:19.960Z,47.07
2019-03-24T17:54:59.113Z,47.60
2019-03-24T17:57:39.180Z,48.64
2019-03-24T18:00:45.006Z,49.63
2019-03-24T18:03:31.641Z,50.78
2019-03-24T18:06:16.038Z,51.37
2019-03-24T18:08:57.074Z,52.04
2019-03-24T18:11:38.359Z,52.46
2019-03-24T18:14:18.617Z,53.04
2019-03-24T18:16:59.784Z,53.21
2019-03-24T18:19:35.247Z,54.15
2019-03-24T18:22:14.803Z,54.89
2019-03-24T18:24:51.085Z,55.21
2019-03-24T18:27:32.066Z,55.55
2019-03-24T18:30:15.966Z,55.71
2019-03-24T18:32:53.421Z,55.88
2019-03-24T18:35:29.855Z,56.15
2019-03-24T18:38:05.694Z,56.36
2019-03-24T18:40:45.824Z,56.42
2019-03-24T18:43:33.307Z,56.45
2019-03-24T18:46:09.808Z,56.52
2019-03-24T18:48:50.972Z,56.67
2019-03-24T18:51:35.313Z,56.87
2019-03-24T18:54:11.263Z,57.08
2019-03-24T18:56:51.299Z,57.00
2019-03-24T18:59:35.564Z,57.27
2019-03-24T19:02:10.739Z,57.40
2019-03-24T19:04:52.049Z,57.65
2019-03-24T19:07:27.684Z,57.73
2019-03-24T19:10:11.081Z,58.13
2019-03-24T19:12:49.799Z,58.33
2019-03-24T19:15:26.250Z,58.76
2019-03-24T19:18:05.516Z,59.28
2019-03-24T19:20:40.231Z,59.83
2019-03-24T19:23:18.853Z,60.28
2019-03-24T19:26:02.229Z,60.73
2019-03-24T19:28:47.597Z,61.21
2019-03-24T19:31:31.062Z,61.63
2019-03-24T19:34:07.475Z,61.99
2019-03-24T19:36:50.856Z,62.32
2019-03-24T19:42:45.860Z,62.74
2019-03-24T19:45:21.429Z,62.98
2019-03-24T19:47:57.747Z,63.12
2019-03-24T19:50:34.616Z,63.42
2019-03-24T19:53:11.445Z,63.67
2019-03-24T19:55:49.735Z,64.00
2019-03-24T19:58:26.468Z,64.60
2019-03-24T20:01:02.182Z,64.99
2019-03-24T20:03:43.586Z,65.31
2019-03-24T20:06:23.843Z,65.39
2019-03-24T20:09:01.168Z,65.60
2019-03-24T20:11:45.158Z,66.10
2019-03-24T20:14:24.084Z,66.31
2019-03-24T20:17:02.629Z,66.69
2019-03-24T20:19:39.014Z,66.98
2019-03-24T20:22:14.772Z,67.11
2019-03-24T20:24:51.726Z,67.75
2019-03-24T20:27:29.762Z,68.17
2019-03-24T20:30:09.820Z,68.31
2019-03-24T20:32:47.144Z,68.64
2019-03-24T20:35:22.064Z,68.78
2019-03-24T20:37:59.521Z,68.86
2019-03-24T20:40:35.212Z,69.45
2019-03-24T20:43:10.145Z,69.79
2019-03-24T20:45:45.304Z,70.35
2019-03-24T20:48:19.996Z,70.50
2019-03-24T20:50:55.452Z,70.26
2019-03-24T20:53:33.092Z,70.72
2019-03-24T20:56:09.663Z,70.54
2019-03-24T20:58:46.960Z,70.80
2019-03-24T21:01:23.985Z,71.36
2019-03-24T21:04:02.063Z,71.65
2019-03-24T21:06:41.720Z,71.65
2019-03-24T21:09:21.992Z,71.57
2019-03-24T21:11:58.746Z,71.75
2019-03-24T21:31:26.190Z,73.70
2019-03-24T21:34:03.139Z,73.80
2019-03-24T21:36:39.071Z,74.15
2019-03-24T21:39:18.722Z,74.23
2019-03-24T21:41:53.394Z,74.68
2019-03-24T21:44:28.076Z,74.95
2019-03-24T21:47:07.771Z,75.35
2019-03-24T21:49:44.176Z,75.58
2019-03-24T21:52:18.687Z,76.03
2019-03-24T21:54:57.754Z,76.39
2019-03-24T21:57:36.659Z,76.91
2019-03-24T22:00:35.689Z,76.93
2019-03-24T22:03:11.645Z,77.91
2019-03-24T22:05:47.123Z,78.26
2019-03-24T22:08:23.189Z,78.41
2019-03-24T22:11:03.171Z,79.23
2019-03-24T22:13:38.350Z,79.61
2019-03-24T22:16:14.463Z,79.99
2019-03-24T22:18:50.255Z,80.47
2019-03-24T22:21:25.291Z,81.01
2019-03-24T22:24:00.337Z,81.26
2019-03-24T22:26:35.660Z,81.43
2019-03-24T22:29:10.858Z,81.80
2019-03-24T22:31:46.192Z,81.87
2019-03-24T22:34:21.083Z,82.05
2019-03-24T22:36:55.700Z,82.26
2019-03-24T22:39:31.350Z,82.30
2019-03-24T22:42:06.706Z,82.68
2019-03-24T22:44:41.652Z,82.65
2019-03-24T22:47:16.711Z,83.01
2019-03-24T22:49:51.681Z,83.57
2019-03-24T22:52:27.607Z,83.90
2019-03-24T22:55:02.351Z,83.90
2019-03-24T22:57:37.380Z,83.81
2019-03-24T23:00:20.483Z,83.89
2019-03-24T23:02:55.953Z,83.98
2019-03-24T23:05:31.836Z,83.85
2019-03-24T23:08:06.484Z,83.57
2019-03-24T23:10:41.854Z,83.19
2019-03-24T23:13:16.555Z,82.69
2019-03-24T23:15:51.582Z,82.36
2019-03-24T23:18:26.237Z,82.07
2019-03-24T23:21:00.917Z,81.73
2019-03-24T23:23:36.323Z,81.44
2019-03-24T23:26:12.044Z,81.02
2019-03-24T23:28:47.388Z,81.06
2019-03-24T23:31:22.954Z,80.87
2019-03-24T23:33:58.729Z,80.67
2019-03-24T23:36:33.526Z,80.62
2019-03-24T23:39:10.270Z,80.38
2019-03-24T23:41:45.235Z,79.83
2019-03-24T23:44:20.604Z,79.40
2019-03-24T23:46:55.456Z,79.30
2019-03-24T23:49:30.603Z,79.25
2019-03-24T23:52:06.732Z,79.11
2019-03-24T23:54:41.935Z,79.07
2019-03-24T23:57:18.241Z,79.01
2019-03-24T23:59:59.271Z,79.04
